sensor_id;sensor_type;location;lat;lon;timestamp;temperature;humidity
2993;DHT22;1506;48.932;9.478;2023-09-08T00:00:17;14.60;99.90
2993;DHT22;1506;48.932;9.478;2023-09-08T00:02:43;14.50;99.90
2993;DHT22;1506;48.932;9.478;2023-09-08T00:05:10;14.50;99.90
2993;DHT22;1506;48.932;9.478;2023-09-08T00:07:37;14.40;99.90
2993;DHT22;1506;48.932;9.478;2023-09-08T00:10:04;14.30;99.90
2993;DHT22;1506;48.932;9.478;2023-09-08T00:12:32;14.30;99.90
2993;DHT22;1506;48.932;9.478;2023-09-08T00:14:58;14.20;99.90
2993;DHT22;1506;48.932;9.478;2023-09-08T00:17:25;14.10;99.90
2993;DHT22;1506;48.932;9.478;2023-09-08T00:19:52;14.10;99.90
2993;DHT22;1506;48.932;9.478;2023-09-08T00:22:19;14.10;99.90
2993;DHT22;1506;48.932;9.478;2023-09-08T00:24:46;14.00;99.90
2993;DHT22;1506;48.932;9.478;2023-09-08T00:27:13;14.00;99.90
2993;DHT22;1506;48.932;9.478;2023-09-08T00:29:40;14.00;99.90
2993;DHT22;1506;48.932;9.478;2023-09-08T00:32:07;14.00;99.90
2993;DHT22;1506;48.932;9.478;2023-09-08T00:34:34;14.00;99.90
2993;DHT22;1506;48.932;9.478;2023-09-08T00:37:01;14.00;99.90
2993;DHT22;1506;48.932;9.478;2023-09-08T00:39:37;14.10;99.90
2993;DHT22;1506;48.932;9.478;2023-09-08T00:42:04;14.10;99.90
2993;DHT22;1506;48.932;9.478;2023-09-08T00:44:33;14.00;99.90
2993;DHT22;1506;48.932;9.478;2023-09-08T00:47:00;14.00;99.90
2993;DHT22;1506;48.932;9.478;2023-09-08T00:49:27;14.00;99.90
2993;DHT22;1506;48.932;9.478;2023-09-08T00:51:55;13.90;99.90
2993;DHT22;1506;48.932;9.478;2023-09-08T00:54:22;13.80;99.90
2993;DHT22;1506;48.932;9.478;2023-09-08T00:56:52;13.80;99.90
2993;DHT22;1506;48.932;9.478;2023-09-08T00:59:22;13.80;99.90
2993;DHT22;1506;48.932;9.478;2023-09-08T01:01:49;13.80;99.90
2993;DHT22;1506;48.932;9.478;2023-09-08T01:04:16;13.90;99.90
2993;DHT22;1506;48.932;9.478;2023-09-08T01:06:44;13.90;99.90
2993;DHT22;1506;48.932;9.478;2023-09-08T01:09:12;13.80;99.90
2993;DHT22;1506;48.932;9.478;2023-09-08T01:11:40;13.80;99.90
2993;DHT22;1506;48.932;9.478;2023-09-08T01:14:07;13.80;99.90
2993;DHT22;1506;48.932;9.478;2023-09-08T01:16:34;13.80;99.90
2993;DHT22;1506;48.932;9.478;2023-09-08T01:19:02;13.80;99.90
2993;DHT22;1506;48.932;9.478;2023-09-08T01:29:53;13.70;99.90
2993;DHT22;1506;48.932;9.478;2023-09-08T01:32:20;13.70;99.90
2993;DHT22;1506;48.932;9.478;2023-09-08T01:34:47;13.70;99.90
2993;DHT22;1506;48.932;9.478;2023-09-08T01:37:15;13.80;99.90
2993;DHT22;1506;48.932;9.478;2023-09-08T01:39:42;13.80;99.90
2993;DHT22;1506;48.932;9.478;2023-09-08T01:42:09;13.80;99.90
2993;DHT22;1506;48.932;9.478;2023-09-08T01:44:36;13.70;99.90
2993;DHT22;1506;48.932;9.478;2023-09-08T01:47:03;13.70;99.90
2993;DHT22;1506;48.932;9.478;2023-09-08T01:49:30;13.50;99.90
2993;DHT22;1506;48.932;9.478;2023-09-08T01:51:57;13.40;99.90
2993;DHT22;1506;48.932;9.478;2023-09-08T01:54:24;13.30;99.90
2993;DHT22;1506;48.932;9.478;2023-09-08T01:56:51;13.30;99.90
2993;DHT22;1506;48.932;9.478;2023-09-08T01:59:18;13.30;99.90
2993;DHT22;1506;48.932;9.478;2023-09-08T02:01:45;13.40;99.90
2993;DHT22;1506;48.932;9.478;2023-09-08T02:04:12;13.50;99.90
2993;DHT22;1506;48.932;9.478;2023-09-08T02:06:40;13.50;99.90
2993;DHT22;1506;48.932;9.478;2023-09-08T02:09:08;13.50;99.90
2993;DHT22;1506;48.932;9.478;2023-09-08T02:11:38;13.30;99.90
2993;DHT22;1506;48.932;9.478;2023-09-08T02:14:05;13.30;99.90
2993;DHT22;1506;48.932;9.478;2023-09-08T02:16:32;13.30;99.90
2993;DHT22;1506;48.932;9.478;2023-09-08T02:18:59;13.30;99.90
2993;DHT22;1506;48.932;9.478;2023-09-08T02:21:26;13.30;99.90
2993;DHT22;1506;48.932;9.478;2023-09-08T02:23:53;13.30;99.90
2993;DHT22;1506;48.932;9.478;2023-09-08T02:26:20;13.30;99.90
2993;DHT22;1506;48.932;9.478;2023-09-08T02:28:47;13.30;99.90
2993;DHT22;1506;48.932;9.478;2023-09-08T02:31:16;13.30;99.90
2993;DHT22;1506;48.932;9.478;2023-09-08T02:33:43;13.30;99.90
2993;DHT22;1506;48.932;9.478;2023-09-08T02:36:10;13.30;99.90
2993;DHT22;1506;48.932;9.478;2023-09-08T02:38:39;13.30;99.90
2993;DHT22;1506;48.932;9.478;2023-09-08T02:41:06;13.30;99.90
2993;DHT22;1506;48.932;9.478;2023-09-08T02:43:33;13.20;99.90
2993;DHT22;1506;48.932;9.478;2023-09-08T02:46:00;13.20;99.90
2993;DHT22;1506;48.932;9.478;2023-09-08T02:48:27;13.30;99.90
2993;DHT22;1506;48.932;9.478;2023-09-08T02:50:54;13.20;99.90
2993;DHT22;1506;48.932;9.478;2023-09-08T02:53:22;13.30;99.90
2993;DHT22;1506;48.932;9.478;2023-09-08T02:55:49;13.30;99.90
2993;DHT22;1506;48.932;9.478;2023-09-08T02:58:16;13.20;99.90
2993;DHT22;1506;48.932;9.478;2023-09-08T03:00:43;13.20;99.90
2993;DHT22;1506;48.932;9.478;2023-09-08T03:03:10;13.20;99.90
2993;DHT22;1506;48.932;9.478;2023-09-08T03:05:37;13.20;99.90
2993;DHT22;1506;48.932;9.478;2023-09-08T03:08:04;13.20;99.90
2993;DHT22;1506;48.932;9.478;2023-09-08T03:10:33;13.10;99.90
2993;DHT22;1506;48.932;9.478;2023-09-08T03:13:04;13.10;99.90
2993;DHT22;1506;48.932;9.478;2023-09-08T03:15:31;13.00;99.90
2993;DHT22;1506;48.932;9.478;2023-09-08T03:17:59;13.00;99.90
2993;DHT22;1506;48.932;9.478;2023-09-08T03:22:55;12.70;99.90
2993;DHT22;1506;48.932;9.478;2023-09-08T03:25:22;13.00;99.90
2993;DHT22;1506;48.932;9.478;2023-09-08T03:27:49;13.00;99.90
2993;DHT22;1506;48.932;9.478;2023-09-08T03:30:16;11.80;99.90
2993;DHT22;1506;48.932;9.478;2023-09-08T03:32:43;13.00;99.90
2993;DHT22;1506;48.932;9.478;2023-09-08T03:35:10;13.00;99.90
2993;DHT22;1506;48.932;9.478;2023-09-08T03:37:38;13.00;99.90
2993;DHT22;1506;48.932;9.478;2023-09-08T03:40:06;13.00;99.90
2993;DHT22;1506;48.932;9.478;2023-09-08T03:42:34;13.00;99.90
2993;DHT22;1506;48.932;9.478;2023-09-08T03:45:02;13.00;99.90
2993;DHT22;1506;48.932;9.478;2023-09-08T03:47:29;13.00;99.90
2993;DHT22;1506;48.932;9.478;2023-09-08T03:49:56;13.00;99.90
2993;DHT22;1506;48.932;9.478;2023-09-08T03:52:24;12.90;99.90
2993;DHT22;1506;48.932;9.478;2023-09-08T03:54:52;12.90;99.90
2993;DHT22;1506;48.932;9.478;2023-09-08T03:57:19;12.90;99.90
2993;DHT22;1506;48.932;9.478;2023-09-08T03:59:46;12.80;99.90
2993;DHT22;1506;48.932;9.478;2023-09-08T04:02:13;12.80;99.90
2993;DHT22;1506;48.932;9.478;2023-09-08T04:04:40;12.80;99.90
2993;DHT22;1506;48.932;9.478;2023-09-08T04:07:08;12.80;99.90
2993;DHT22;1506;48.932;9.478;2023-09-08T04:09:35;12.80;99.90
2993;DHT22;1506;48.932;9.478;2023-09-08T04:12:02;12.70;99.90
2993;DHT22;1506;48.932;9.478;2023-09-08T04:14:30;12.70;99.90
2993;DHT22;1506;48.932;9.478;2023-09-08T04:16:57;12.70;99.90
2993;DHT22;1506;48.932;9.478;2023-09-08T04:19:25;12.70;99.90
2993;DHT22;1506;48.932;9.478;2023-09-08T04:21:53;12.70;99.90
2993;DHT22;1506;48.932;9.478;2023-09-08T04:26:48;12.60;99.90
2993;DHT22;1506;48.932;9.478;2023-09-08T04:29:14;12.70;99.90
2993;DHT22;1506;48.932;9.478;2023-09-08T04:31:42;12.70;99.90
2993;DHT22;1506;48.932;9.478;2023-09-08T04:34:09;12.70;99.90
2993;DHT22;1506;48.932;9.478;2023-09-08T04:36:36;12.70;99.90
2993;DHT22;1506;48.932;9.478;2023-09-08T04:39:03;12.70;99.90
2993;DHT22;1506;48.932;9.478;2023-09-08T04:41:30;12.70;99.90
2993;DHT22;1506;48.932;9.478;2023-09-08T04:46:25;12.60;99.90
2993;DHT22;1506;48.932;9.478;2023-09-08T04:48:52;12.60;99.90
2993;DHT22;1506;48.932;9.478;2023-09-08T04:51:21;12.60;99.90
2993;DHT22;1506;48.932;9.478;2023-09-08T04:53:49;12.60;99.90
2993;DHT22;1506;48.932;9.478;2023-09-08T04:56:16;12.50;99.90
2993;DHT22;1506;48.932;9.478;2023-09-08T04:58:43;12.50;99.90
2993;DHT22;1506;48.932;9.478;2023-09-08T05:01:11;12.50;99.90
2993;DHT22;1506;48.932;9.478;2023-09-08T05:03:39;12.60;99.90
2993;DHT22;1506;48.932;9.478;2023-09-08T05:06:07;12.60;99.90
2993;DHT22;1506;48.932;9.478;2023-09-08T05:08:35;12.60;99.90
2993;DHT22;1506;48.932;9.478;2023-09-08T05:11:03;12.40;99.90
2993;DHT22;1506;48.932;9.478;2023-09-08T05:16:01;12.40;99.90
2993;DHT22;1506;48.932;9.478;2023-09-08T05:18:42;13.30;99.90
2993;DHT22;1506;48.932;9.478;2023-09-08T05:21:10;14.50;99.90
2993;DHT22;1506;48.932;9.478;2023-09-08T05:23:37;15.70;99.90
2993;DHT22;1506;48.932;9.478;2023-09-08T05:26:05;16.50;1.00
2993;DHT22;1506;48.932;9.478;2023-09-08T05:28:32;16.70;1.00
2993;DHT22;1506;48.932;9.478;2023-09-08T05:31:04;17.60;1.00
2993;DHT22;1506;48.932;9.478;2023-09-08T05:33:32;18.60;99.90
2993;DHT22;1506;48.932;9.478;2023-09-08T05:36:00;18.70;99.90
2993;DHT22;1506;48.932;9.478;2023-09-08T05:38:28;18.50;99.90
2993;DHT22;1506;48.932;9.478;2023-09-08T05:40:55;17.80;1.00
2993;DHT22;1506;48.932;9.478;2023-09-08T05:43:25;17.80;1.00
2993;DHT22;1506;48.932;9.478;2023-09-08T05:45:53;17.40;1.00
2993;DHT22;1506;48.932;9.478;2023-09-08T05:48:20;16.60;99.90
2993;DHT22;1506;48.932;9.478;2023-09-08T05:50:48;16.10;1.00
2993;DHT22;1506;48.932;9.478;2023-09-08T05:53:15;16.40;1.00
2993;DHT22;1506;48.932;9.478;2023-09-08T05:55:43;17.10;1.00
2993;DHT22;1506;48.932;9.478;2023-09-08T05:58:10;17.90;1.00
2993;DHT22;1506;48.932;9.478;2023-09-08T06:00:37;19.60;99.90
2993;DHT22;1506;48.932;9.478;2023-09-08T06:03:04;20.70;99.90
2993;DHT22;1506;48.932;9.478;2023-09-08T06:05:32;21.60;98.50
2993;DHT22;1506;48.932;9.478;2023-09-08T06:07:59;22.90;99.90
2993;DHT22;1506;48.932;9.478;2023-09-08T06:10:36;23.90;99.90
2993;DHT22;1506;48.932;9.478;2023-09-08T06:13:06;24.70;55.50
2993;DHT22;1506;48.932;9.478;2023-09-08T06:15:34;25.30;1.00
2993;DHT22;1506;48.932;9.478;2023-09-08T06:18:01;25.80;1.00
2993;DHT22;1506;48.932;9.478;2023-09-08T06:20:29;25.50;1.00
2993;DHT22;1506;48.932;9.478;2023-09-08T06:22:57;25.50;1.00
2993;DHT22;1506;48.932;9.478;2023-09-08T06:25:24;26.00;1.00
2993;DHT22;1506;48.932;9.478;2023-09-08T06:27:51;26.60;1.00
2993;DHT22;1506;48.932;9.478;2023-09-08T06:30:19;26.90;1.00
2993;DHT22;1506;48.932;9.478;2023-09-08T06:32:46;26.90;1.00
2993;DHT22;1506;48.932;9.478;2023-09-08T06:35:13;27.00;1.00
2993;DHT22;1506;48.932;9.478;2023-09-08T06:37:40;27.20;1.00
2993;DHT22;1506;48.932;9.478;2023-09-08T06:40:08;27.40;1.00
2993;DHT22;1506;48.932;9.478;2023-09-08T06:42:35;27.60;1.00
2993;DHT22;1506;48.932;9.478;2023-09-08T06:45:11;27.80;1.00
2993;DHT22;1506;48.932;9.478;2023-09-08T06:47:40;28.00;1.00
2993;DHT22;1506;48.932;9.478;2023-09-08T06:50:07;28.50;1.00
2993;DHT22;1506;48.932;9.478;2023-09-08T06:52:34;28.40;1.00
2993;DHT22;1506;48.932;9.478;2023-09-08T06:55:02;28.60;1.00
2993;DHT22;1506;48.932;9.478;2023-09-08T06:57:29;28.50;1.00
2993;DHT22;1506;48.932;9.478;2023-09-08T06:59:56;28.60;1.00
2993;DHT22;1506;48.932;9.478;2023-09-08T07:02:23;28.40;99.90
2993;DHT22;1506;48.932;9.478;2023-09-08T07:04:51;28.60;99.90
2993;DHT22;1506;48.932;9.478;2023-09-08T07:07:18;29.20;99.90
2993;DHT22;1506;48.932;9.478;2023-09-08T07:09:47;29.70;1.00
2993;DHT22;1506;48.932;9.478;2023-09-08T07:12:15;29.70;1.00
2993;DHT22;1506;48.932;9.478;2023-09-08T07:14:42;29.10;1.00
2993;DHT22;1506;48.932;9.478;2023-09-08T07:17:09;29.60;1.00
2993;DHT22;1506;48.932;9.478;2023-09-08T07:19:36;30.20;99.90
2993;DHT22;1506;48.932;9.478;2023-09-08T07:22:03;30.80;99.90
2993;DHT22;1506;48.932;9.478;2023-09-08T07:24:30;31.20;1.00
2993;DHT22;1506;48.932;9.478;2023-09-08T07:31:52;32.00;1.00
2993;DHT22;1506;48.932;9.478;2023-09-08T07:49:06;32.40;1.00
2993;DHT22;1506;48.932;9.478;2023-09-08T07:51:33;32.30;1.00
2993;DHT22;1506;48.932;9.478;2023-09-08T07:54:00;31.90;1.00
2993;DHT22;1506;48.932;9.478;2023-09-08T07:56:30;31.10;1.00
2993;DHT22;1506;48.932;9.478;2023-09-08T07:58:57;30.50;18.90
2993;DHT22;1506;48.932;9.478;2023-09-08T08:08:47;29.30;41.70
2993;DHT22;1506;48.932;9.478;2023-09-08T08:11:15;29.40;57.00
2993;DHT22;1506;48.932;9.478;2023-09-08T08:13:45;29.50;1.00
2993;DHT22;1506;48.932;9.478;2023-09-08T08:16:13;29.50;1.00
2993;DHT22;1506;48.932;9.478;2023-09-08T08:18:40;29.40;1.00
2993;DHT22;1506;48.932;9.478;2023-09-08T08:21:07;29.50;1.00
2993;DHT22;1506;48.932;9.478;2023-09-08T08:23:35;29.40;1.00
2993;DHT22;1506;48.932;9.478;2023-09-08T08:26:03;29.00;1.00
2993;DHT22;1506;48.932;9.478;2023-09-08T08:28:30;29.20;1.00
2993;DHT22;1506;48.932;9.478;2023-09-08T08:30:57;29.30;1.00
2993;DHT22;1506;48.932;9.478;2023-09-08T08:33:24;29.70;1.00
2993;DHT22;1506;48.932;9.478;2023-09-08T08:35:53;29.60;1.00
2993;DHT22;1506;48.932;9.478;2023-09-08T08:38:20;28.80;1.00
2993;DHT22;1506;48.932;9.478;2023-09-08T08:40:48;28.50;1.00
2993;DHT22;1506;48.932;9.478;2023-09-08T08:43:15;28.70;1.00
2993;DHT22;1506;48.932;9.478;2023-09-08T08:45:42;28.70;1.00
2993;DHT22;1506;48.932;9.478;2023-09-08T08:48:10;28.90;1.00
2993;DHT22;1506;48.932;9.478;2023-09-08T08:50:42;28.50;1.00
2993;DHT22;1506;48.932;9.478;2023-09-08T08:53:10;28.20;1.00
2993;DHT22;1506;48.932;9.478;2023-09-08T08:55:39;28.50;1.00
2993;DHT22;1506;48.932;9.478;2023-09-08T08:58:07;28.90;1.00
2993;DHT22;1506;48.932;9.478;2023-09-08T09:03:05;29.30;1.00
2993;DHT22;1506;48.932;9.478;2023-09-08T09:05:41;29.00;1.00
2993;DHT22;1506;48.932;9.478;2023-09-08T09:08:29;29.30;1.00
2993;DHT22;1506;48.932;9.478;2023-09-08T09:10:56;29.30;1.00
2993;DHT22;1506;48.932;9.478;2023-09-08T09:13:23;29.70;1.00
2993;DHT22;1506;48.932;9.478;2023-09-08T09:15:50;30.20;1.00
2993;DHT22;1506;48.932;9.478;2023-09-08T09:18:17;30.20;1.00
2993;DHT22;1506;48.932;9.478;2023-09-08T09:20:54;30.30;1.00
2993;DHT22;1506;48.932;9.478;2023-09-08T09:23:30;30.60;1.00
2993;DHT22;1506;48.932;9.478;2023-09-08T09:26:00;30.40;1.00
2993;DHT22;1506;48.932;9.478;2023-09-08T09:28:30;29.20;1.00
2993;DHT22;1506;48.932;9.478;2023-09-08T09:30:58;29.00;1.00
2993;DHT22;1506;48.932;9.478;2023-09-08T09:33:28;29.50;1.00
2993;DHT22;1506;48.932;9.478;2023-09-08T09:35:55;30.40;1.00
2993;DHT22;1506;48.932;9.478;2023-09-08T09:38:26;30.40;1.00
2993;DHT22;1506;48.932;9.478;2023-09-08T09:40:54;30.30;1.00
2993;DHT22;1506;48.932;9.478;2023-09-08T09:43:22;30.90;1.00
2993;DHT22;1506;48.932;9.478;2023-09-08T09:45:50;31.70;1.00
2993;DHT22;1506;48.932;9.478;2023-09-08T09:48:19;32.20;1.00
2993;DHT22;1506;48.932;9.478;2023-09-08T09:53:17;33.10;1.00
2993;DHT22;1506;48.932;9.478;2023-09-08T09:55:46;33.50;99.90
2993;DHT22;1506;48.932;9.478;2023-09-08T09:58:13;33.90;99.90
2993;DHT22;1506;48.932;9.478;2023-09-08T10:00:43;34.30;99.90
2993;DHT22;1506;48.932;9.478;2023-09-08T10:03:15;34.20;99.90
2993;DHT22;1506;48.932;9.478;2023-09-08T10:05:44;33.80;99.90
2993;DHT22;1506;48.932;9.478;2023-09-08T10:08:13;34.10;99.90
2993;DHT22;1506;48.932;9.478;2023-09-08T10:10:40;34.60;99.90
2993;DHT22;1506;48.932;9.478;2023-09-08T10:13:13;34.60;99.90
2993;DHT22;1506;48.932;9.478;2023-09-08T10:15:50;34.20;99.90
2993;DHT22;1506;48.932;9.478;2023-09-08T10:18:19;34.00;99.90
2993;DHT22;1506;48.932;9.478;2023-09-08T10:20:49;35.10;1.00
2993;DHT22;1506;48.932;9.478;2023-09-08T10:23:23;35.00;99.90
2993;DHT22;1506;48.932;9.478;2023-09-08T10:25:59;34.30;99.90
2993;DHT22;1506;48.932;9.478;2023-09-08T10:28:32;34.60;99.90
2993;DHT22;1506;48.932;9.478;2023-09-08T10:31:01;34.60;99.90
2993;DHT22;1506;48.932;9.478;2023-09-08T10:33:30;35.00;99.90
2993;DHT22;1506;48.932;9.478;2023-09-08T10:35:59;35.30;99.90
2993;DHT22;1506;48.932;9.478;2023-09-08T10:38:33;35.30;99.90
2993;DHT22;1506;48.932;9.478;2023-09-08T10:44:12;35.50;1.00
2993;DHT22;1506;48.932;9.478;2023-09-08T10:46:41;36.50;99.90
2993;DHT22;1506;48.932;9.478;2023-09-08T10:49:08;36.60;99.90
2993;DHT22;1506;48.932;9.478;2023-09-08T10:51:37;36.20;99.90
2993;DHT22;1506;48.932;9.478;2023-09-08T10:54:05;35.50;99.90
2993;DHT22;1506;48.932;9.478;2023-09-08T10:57:14;36.10;99.90
2993;DHT22;1506;48.932;9.478;2023-09-08T11:02:33;36.10;99.90
2993;DHT22;1506;48.932;9.478;2023-09-08T11:05:03;36.30;99.90
2993;DHT22;1506;48.932;9.478;2023-09-08T11:07:32;36.70;99.90
2993;DHT22;1506;48.932;9.478;2023-09-08T11:10:00;37.20;99.90
2993;DHT22;1506;48.932;9.478;2023-09-08T11:12:28;37.10;99.90
2993;DHT22;1506;48.932;9.478;2023-09-08T11:14:55;37.30;99.90
2993;DHT22;1506;48.932;9.478;2023-09-08T11:17:29;37.40;99.90
2993;DHT22;1506;48.932;9.478;2023-09-08T11:19:57;37.50;99.90
2993;DHT22;1506;48.932;9.478;2023-09-08T11:22:25;37.90;1.00
2993;DHT22;1506;48.932;9.478;2023-09-08T11:24:53;37.20;99.90
2993;DHT22;1506;48.932;9.478;2023-09-08T11:27:23;36.60;99.90
2993;DHT22;1506;48.932;9.478;2023-09-08T11:29:50;34.90;1.00
2993;DHT22;1506;48.932;9.478;2023-09-08T11:32:17;35.20;1.00
2993;DHT22;1506;48.932;9.478;2023-09-08T11:34:44;35.90;99.90
2993;DHT22;1506;48.932;9.478;2023-09-08T11:37:13;34.70;1.00
2993;DHT22;1506;48.932;9.478;2023-09-08T11:39:43;35.00;1.00
2993;DHT22;1506;48.932;9.478;2023-09-08T11:42:13;35.70;1.00
2993;DHT22;1506;48.932;9.478;2023-09-08T11:44:42;36.50;99.90
2993;DHT22;1506;48.932;9.478;2023-09-08T11:47:10;36.90;99.90
2993;DHT22;1506;48.932;9.478;2023-09-08T11:49:39;35.10;1.00
2993;DHT22;1506;48.932;9.478;2023-09-08T11:52:07;35.30;1.00
2993;DHT22;1506;48.932;9.478;2023-09-08T11:54:35;35.90;1.00
2993;DHT22;1506;48.932;9.478;2023-09-08T11:57:17;36.40;1.00
2993;DHT22;1506;48.932;9.478;2023-09-08T11:59:45;36.70;1.00
2993;DHT22;1506;48.932;9.478;2023-09-08T12:04:45;37.50;1.00
2993;DHT22;1506;48.932;9.478;2023-09-08T12:07:13;37.70;1.00
2993;DHT22;1506;48.932;9.478;2023-09-08T12:09:43;38.00;1.00
2993;DHT22;1506;48.932;9.478;2023-09-08T12:14:42;38.00;1.00
2993;DHT22;1506;48.932;9.478;2023-09-08T12:22:11;38.60;1.00
2993;DHT22;1506;48.932;9.478;2023-09-08T12:27:20;38.90;1.00
2993;DHT22;1506;48.932;9.478;2023-09-08T12:29:58;38.90;1.00
2993;DHT22;1506;48.932;9.478;2023-09-08T12:37:28;34.10;1.00
2993;DHT22;1506;48.932;9.478;2023-09-08T12:39:56;34.00;1.00
2993;DHT22;1506;48.932;9.478;2023-09-08T12:42:23;33.40;1.00
2993;DHT22;1506;48.932;9.478;2023-09-08T12:44:57;34.00;1.00
2993;DHT22;1506;48.932;9.478;2023-09-08T12:47:25;35.10;1.00
2993;DHT22;1506;48.932;9.478;2023-09-08T12:52:22;36.00;1.00
2993;DHT22;1506;48.932;9.478;2023-09-08T12:59:44;37.40;99.90
2993;DHT22;1506;48.932;9.478;2023-09-08T13:02:11;37.90;99.90
2993;DHT22;1506;48.932;9.478;2023-09-08T13:04:39;38.00;99.90
2993;DHT22;1506;48.932;9.478;2023-09-08T13:07:06;38.10;99.90
2993;DHT22;1506;48.932;9.478;2023-09-08T13:09:33;37.80;99.90
2993;DHT22;1506;48.932;9.478;2023-09-08T13:12:00;37.40;99.90
2993;DHT22;1506;48.932;9.478;2023-09-08T13:14:27;37.60;99.90
2993;DHT22;1506;48.932;9.478;2023-09-08T13:16:54;37.50;99.90
2993;DHT22;1506;48.932;9.478;2023-09-08T13:19:21;36.30;99.90
2993;DHT22;1506;48.932;9.478;2023-09-08T13:21:48;36.30;99.90
2993;DHT22;1506;48.932;9.478;2023-09-08T13:24:15;34.40;99.90
2993;DHT22;1506;48.932;9.478;2023-09-08T13:29:10;34.20;99.90
2993;DHT22;1506;48.932;9.478;2023-09-08T13:31:37;34.10;99.90
2993;DHT22;1506;48.932;9.478;2023-09-08T13:34:04;33.80;1.00
2993;DHT22;1506;48.932;9.478;2023-09-08T13:36:31;33.80;99.90
2993;DHT22;1506;48.932;9.478;2023-09-08T13:38:58;33.70;99.90
2993;DHT22;1506;48.932;9.478;2023-09-08T13:42:04;33.60;99.90
2993;DHT22;1506;48.932;9.478;2023-09-08T13:44:30;33.40;99.90
2993;DHT22;1506;48.932;9.478;2023-09-08T13:46:57;33.20;99.90
2993;DHT22;1506;48.932;9.478;2023-09-08T13:49:26;33.00;99.90
2993;DHT22;1506;48.932;9.478;2023-09-08T13:51:55;33.00;99.90
2993;DHT22;1506;48.932;9.478;2023-09-08T13:54:23;32.90;99.90
2993;DHT22;1506;48.932;9.478;2023-09-08T13:57:00;32.70;99.90
2993;DHT22;1506;48.932;9.478;2023-09-08T13:59:33;32.40;99.90
2993;DHT22;1506;48.932;9.478;2023-09-08T14:02:02;31.80;99.90
2993;DHT22;1506;48.932;9.478;2023-09-08T14:04:36;31.40;99.90
2993;DHT22;1506;48.932;9.478;2023-09-08T14:07:08;31.30;99.90
2993;DHT22;1506;48.932;9.478;2023-09-08T14:09:44;31.00;99.90
2993;DHT22;1506;48.932;9.478;2023-09-08T14:12:15;30.60;99.90
2993;DHT22;1506;48.932;9.478;2023-09-08T14:14:45;30.50;99.90
2993;DHT22;1506;48.932;9.478;2023-09-08T14:17:12;30.30;99.90
2993;DHT22;1506;48.932;9.478;2023-09-08T14:19:39;30.00;99.90
2993;DHT22;1506;48.932;9.478;2023-09-08T14:22:06;29.90;99.90
2993;DHT22;1506;48.932;9.478;2023-09-08T14:24:33;30.00;99.90
2993;DHT22;1506;48.932;9.478;2023-09-08T14:27:00;30.20;1.00
2993;DHT22;1506;48.932;9.478;2023-09-08T14:29:27;30.40;1.00
2993;DHT22;1506;48.932;9.478;2023-09-08T14:31:54;30.40;1.00
2993;DHT22;1506;48.932;9.478;2023-09-08T14:34:21;30.50;1.00
2993;DHT22;1506;48.932;9.478;2023-09-08T14:36:48;30.20;1.00
2993;DHT22;1506;48.932;9.478;2023-09-08T14:39:16;29.90;1.00
2993;DHT22;1506;48.932;9.478;2023-09-08T14:41:45;29.60;1.00
2993;DHT22;1506;48.932;9.478;2023-09-08T14:44:12;29.60;1.00
2993;DHT22;1506;48.932;9.478;2023-09-08T14:46:39;29.60;1.00
2993;DHT22;1506;48.932;9.478;2023-09-08T14:49:06;29.50;1.00
2993;DHT22;1506;48.932;9.478;2023-09-08T14:51:33;29.50;1.00
2993;DHT22;1506;48.932;9.478;2023-09-08T14:54:00;29.50;1.00
2993;DHT22;1506;48.932;9.478;2023-09-08T14:56:27;29.40;1.00
2993;DHT22;1506;48.932;9.478;2023-09-08T14:58:54;29.50;1.00
2993;DHT22;1506;48.932;9.478;2023-09-08T15:01:21;29.50;1.00
2993;DHT22;1506;48.932;9.478;2023-09-08T15:03:48;29.30;1.00
2993;DHT22;1506;48.932;9.478;2023-09-08T15:06:16;29.50;1.00
2993;DHT22;1506;48.932;9.478;2023-09-08T15:08:43;29.60;1.00
2993;DHT22;1506;48.932;9.478;2023-09-08T15:11:12;29.40;1.00
2993;DHT22;1506;48.932;9.478;2023-09-08T15:13:39;29.20;1.00
2993;DHT22;1506;48.932;9.478;2023-09-08T15:16:07;29.20;1.00
2993;DHT22;1506;48.932;9.478;2023-09-08T15:18:35;29.10;99.90
2993;DHT22;1506;48.932;9.478;2023-09-08T15:21:02;29.10;99.90
2993;DHT22;1506;48.932;9.478;2023-09-08T15:23:29;29.10;99.90
2993;DHT22;1506;48.932;9.478;2023-09-08T15:25:57;29.10;99.90
2993;DHT22;1506;48.932;9.478;2023-09-08T15:28:25;29.20;99.90
2993;DHT22;1506;48.932;9.478;2023-09-08T15:30:53;29.40;99.90
2993;DHT22;1506;48.932;9.478;2023-09-08T15:33:21;29.50;99.90
2993;DHT22;1506;48.932;9.478;2023-09-08T15:35:51;29.50;99.90
2993;DHT22;1506;48.932;9.478;2023-09-08T15:38:18;29.50;99.90
2993;DHT22;1506;48.932;9.478;2023-09-08T15:43:32;29.80;99.90
2993;DHT22;1506;48.932;9.478;2023-09-08T15:46:02;29.70;99.90
2993;DHT22;1506;48.932;9.478;2023-09-08T15:48:30;29.50;99.90
2993;DHT22;1506;48.932;9.478;2023-09-08T15:50:57;29.50;99.90
2993;DHT22;1506;48.932;9.478;2023-09-08T15:53:24;29.60;99.90
2993;DHT22;1506;48.932;9.478;2023-09-08T15:55:51;29.70;99.90
2993;DHT22;1506;48.932;9.478;2023-09-08T15:58:18;29.50;99.90
2993;DHT22;1506;48.932;9.478;2023-09-08T16:00:45;29.40;99.90
2993;DHT22;1506;48.932;9.478;2023-09-08T16:03:12;29.30;99.90
2993;DHT22;1506;48.932;9.478;2023-09-08T16:05:39;29.30;99.90
2993;DHT22;1506;48.932;9.478;2023-09-08T16:08:06;29.20;99.90
2993;DHT22;1506;48.932;9.478;2023-09-08T16:10:34;29.20;99.90
2993;DHT22;1506;48.932;9.478;2023-09-08T16:13:01;29.30;99.90
2993;DHT22;1506;48.932;9.478;2023-09-08T16:15:28;29.30;99.90
2993;DHT22;1506;48.932;9.478;2023-09-08T16:17:55;29.30;99.90
2993;DHT22;1506;48.932;9.478;2023-09-08T16:20:23;29.30;99.90
2993;DHT22;1506;48.932;9.478;2023-09-08T16:22:50;29.40;99.90
2993;DHT22;1506;48.932;9.478;2023-09-08T16:25:17;29.30;99.90
2993;DHT22;1506;48.932;9.478;2023-09-08T16:27:44;29.30;99.90
2993;DHT22;1506;48.932;9.478;2023-09-08T16:30:12;29.30;99.90
2993;DHT22;1506;48.932;9.478;2023-09-08T16:32:39;29.10;99.90
2993;DHT22;1506;48.932;9.478;2023-09-08T16:35:07;29.10;99.90
2993;DHT22;1506;48.932;9.478;2023-09-08T16:37:34;29.10;99.90
2993;DHT22;1506;48.932;9.478;2023-09-08T16:40:01;29.10;99.90
2993;DHT22;1506;48.932;9.478;2023-09-08T16:42:29;29.10;99.90
2993;DHT22;1506;48.932;9.478;2023-09-08T16:44:56;29.00;99.90
2993;DHT22;1506;48.932;9.478;2023-09-08T16:47:23;29.00;99.90
2993;DHT22;1506;48.932;9.478;2023-09-08T16:49:52;29.00;99.90
2993;DHT22;1506;48.932;9.478;2023-09-08T16:52:22;29.00;99.90
2993;DHT22;1506;48.932;9.478;2023-09-08T16:54:49;28.90;99.90
2993;DHT22;1506;48.932;9.478;2023-09-08T16:57:16;28.90;99.90
2993;DHT22;1506;48.932;9.478;2023-09-08T16:59:44;28.80;99.90
2993;DHT22;1506;48.932;9.478;2023-09-08T17:02:11;28.80;99.90
2993;DHT22;1506;48.932;9.478;2023-09-08T17:04:38;28.80;99.90
2993;DHT22;1506;48.932;9.478;2023-09-08T17:07:07;28.60;99.90
2993;DHT22;1506;48.932;9.478;2023-09-08T17:09:34;28.60;99.90
2993;DHT22;1506;48.932;9.478;2023-09-08T17:12:01;28.40;99.90
2993;DHT22;1506;48.932;9.478;2023-09-08T17:14:31;28.20;99.90
2993;DHT22;1506;48.932;9.478;2023-09-08T17:16:58;28.00;1.00
2993;DHT22;1506;48.932;9.478;2023-09-08T17:19:25;27.70;1.00
2993;DHT22;1506;48.932;9.478;2023-09-08T17:21:52;27.50;1.00
2993;DHT22;1506;48.932;9.478;2023-09-08T17:24:19;27.40;1.00
2993;DHT22;1506;48.932;9.478;2023-09-08T17:36:46;26.00;1.00
2993;DHT22;1506;48.932;9.478;2023-09-08T17:39:14;25.80;99.90
2993;DHT22;1506;48.932;9.478;2023-09-08T17:41:41;25.70;99.90
2993;DHT22;1506;48.932;9.478;2023-09-08T17:44:09;25.60;99.90
2993;DHT22;1506;48.932;9.478;2023-09-08T17:46:36;25.60;1.00
2993;DHT22;1506;48.932;9.478;2023-09-08T17:49:03;25.60;1.00